Time;durP1;ratioP1;P1;durP2;ratioP2;P2;SDS_P1;SDS_P2;PMS_P1;PMS_P2;Temp;Humidity;BMP_temperature;BMP_pressure;BME280_temperature;BME280_humidity;BME280_pressure;Samples;Min_cycle;Max_cycle;Signal;HPM_P1;HPM_P2
2022/09/02 00:01:41;;;;;;;15.95;10.23;;;;;;;;;;4390136;32;20590;-80
2022/09/02 00:04:12;;;;;;;16.67;10.70;;;;;;;;;;4390192;32;20202;-81
2022/09/02 00:06:40;;;;;;;15.55;10.48;;;;;;;;;;4390149;32;20533;-83
2022/09/02 00:09:11;;;;;;;13.48;11.18;;;;;;;;;;4390157;32;20543;-81
2022/09/02 00:11:40;;;;;;;13.32;10.38;;;;;;;;;;4390147;32;20285;-81
2022/09/02 00:14:11;;;;;;;11.65;10.52;;;;;;;;;;4390146;32;20284;-81
2022/09/02 00:16:40;;;;;;;16.27;11.45;;;;;;;;;;4389880;32;20586;-80
2022/09/02 00:19:09;;;;;;;22.62;10.50;;;;;;;;;;4390215;32;20600;-81
2022/09/02 00:21:37;;;;;;;19.45;10.85;;;;;;;;;;4389817;32;20582;-80
2022/09/02 00:24:06;;;;;;;14.70;10.93;;;;;;;;;;4389928;32;20523;-81
2022/09/02 00:26:35;;;;;;;16.77;11.45;;;;;;;;;;4389790;32;20590;-81
2022/09/02 00:29:03;;;;;;;12.52;11.25;;;;;;;;;;4389887;32;20513;-80
2022/09/02 00:31:32;;;;;;;17.67;11.90;;;;;;;;;;4389727;32;20586;-80
2022/09/02 00:34:00;;;;;;;16.05;11.45;;;;;;;;;;4389803;32;20535;-80
2022/09/02 00:36:27;;;;;;;13.45;12.05;;;;;;;;;;4389654;32;20560;-80
2022/09/02 00:38:55;;;;;;;14.43;11.10;;;;;;;;;;4389643;32;20536;-85
2022/09/02 00:41:25;;;;;;;13.77;10.55;;;;;;;;;;4389546;32;20571;-80
2022/09/02 00:43:56;;;;;;;19.30;11.05;;;;;;;;;;4389470;32;20516;-80
2022/09/02 00:46:26;;;;;;;13.32;11.77;;;;;;;;;;4389374;32;20587;-80
2022/09/02 00:48:58;;;;;;;16.90;12.35;;;;;;;;;;4389805;32;20547;-80
2022/09/02 00:51:30;;;;;;;15.57;11.20;;;;;;;;;;4389377;32;20632;-80
2022/09/02 00:53:58;;;;;;;16.42;11.43;;;;;;;;;;4389495;32;20554;-80
2022/09/02 00:56:31;;;;;;;12.00;10.15;;;;;;;;;;4389297;32;20773;-81
2022/09/02 00:59:01;;;;;;;13.70;8.63;;;;;;;;;;4389273;32;20360;-80
2022/09/02 01:01:29;;;;;;;11.68;8.70;;;;;;;;;;4389566;32;20579;-80
2022/09/02 01:03:56;;;;;;;9.70;7.47;;;;;;;;;;4389308;32;20535;-81
2022/09/02 01:06:27;;;;;;;17.52;8.13;;;;;;;;;;4389232;32;20673;-80
2022/09/02 01:08:58;;;;;;;14.02;7.45;;;;;;;;;;4389438;32;20520;-83
2022/09/02 01:11:31;;;;;;;11.35;7.80;;;;;;;;;;4388574;32;20696;-81
2022/09/02 01:14:00;;;;;;;10.05;7.32;;;;;;;;;;4389186;32;20539;-81
2022/09/02 01:16:42;;;;;;;8.98;8.00;;;;;;;;;;4388940;32;20578;-81
2022/09/02 01:19:17;;;;;;;9.05;7.78;;;;;;;;;;4389071;32;20544;-80
2022/09/02 01:21:48;;;;;;;9.43;8.25;;;;;;;;;;4388782;32;20591;-80
2022/09/02 01:24:17;;;;;;;10.43;8.10;;;;;;;;;;4388931;32;20700;-80
2022/09/02 01:26:45;;;;;;;10.43;8.48;;;;;;;;;;4388787;32;20532;-81
2022/09/02 01:29:12;;;;;;;14.13;8.85;;;;;;;;;;4388789;32;20536;-81
2022/09/02 01:31:40;;;;;;;14.15;10.35;;;;;;;;;;4388793;32;20548;-81
2022/09/02 01:34:07;;;;;;;13.85;9.60;;;;;;;;;;4388665;32;20543;-81
2022/09/02 01:36:39;;;;;;;13.65;9.90;;;;;;;;;;4388803;32;20682;-80
2022/09/02 01:39:08;;;;;;;14.05;10.93;;;;;;;;;;4389051;32;20543;-80
2022/09/02 01:41:36;;;;;;;12.77;10.20;;;;;;;;;;4388497;32;20753;-79
2022/09/02 01:44:04;;;;;;;11.38;9.95;;;;;;;;;;4388739;32;20495;-80
2022/09/02 01:46:33;;;;;;;10.68;9.35;;;;;;;;;;4388666;32;20578;-80
2022/09/02 01:49:01;;;;;;;14.20;10.27;;;;;;;;;;4388547;32;20284;-79
2022/09/02 01:51:28;;;;;;;21.52;10.40;;;;;;;;;;4388498;32;20599;-80
2022/09/02 01:53:56;;;;;;;13.75;10.13;;;;;;;;;;4388540;32;20347;-80
2022/09/02 01:56:25;;;;;;;14.05;10.32;;;;;;;;;;4388701;32;20567;-80
2022/09/02 01:58:52;;;;;;;14.48;10.48;;;;;;;;;;4388624;32;20288;-80
2022/09/02 02:01:20;;;;;;;14.13;10.73;;;;;;;;;;4388789;32;20651;-80
2022/09/02 02:03:48;;;;;;;11.88;9.80;;;;;;;;;;4388531;32;20240;-81
2022/09/02 02:06:17;;;;;;;10.68;9.30;;;;;;;;;;4388595;32;20664;-80
2022/09/02 02:08:45;;;;;;;10.98;9.30;;;;;;;;;;4388473;32;20555;-80
2022/09/02 02:11:18;;;;;;;12.43;8.50;;;;;;;;;;4388786;32;20344;-80
2022/09/02 02:13:48;;;;;;;12.55;8.88;;;;;;;;;;4389795;32;20591;-79
2022/09/02 02:16:16;;;;;;;14.10;7.75;;;;;;;;;;4389093;32;20685;-80
2022/09/02 02:18:44;;;;;;;8.18;7.35;;;;;;;;;;4389722;32;20677;-79
2022/09/02 02:21:12;;;;;;;11.70;8.30;;;;;;;;;;4389188;32;20686;-79
2022/09/02 02:23:40;;;;;;;10.80;7.35;;;;;;;;;;4391887;32;20543;-79
2022/09/02 02:26:08;;;;;;;7.53;6.32;;;;;;;;;;4391541;32;20563;-80
2022/09/02 02:28:36;;;;;;;9.98;7.65;;;;;;;;;;4392009;32;20559;-80
2022/09/02 02:31:07;;;;;;;10.18;7.72;;;;;;;;;;4392064;32;20693;-80
2022/09/02 02:33:35;;;;;;;9.82;7.60;;;;;;;;;;4391684;32;20206;-79
2022/09/02 02:36:03;;;;;;;11.12;7.20;;;;;;;;;;4391651;32;20238;-80
2022/09/02 02:38:31;;;;;;;9.45;7.28;;;;;;;;;;4391624;32;20524;-80
2022/09/02 02:41:00;;;;;;;12.48;6.72;;;;;;;;;;4391468;32;20578;-79
2022/09/02 02:43:28;;;;;;;9.85;7.05;;;;;;;;;;4391296;32;20583;-81
2022/09/02 02:45:56;;;;;;;10.43;7.22;;;;;;;;;;4391278;32;20564;-83
2022/09/02 02:48:25;;;;;;;9.52;7.43;;;;;;;;;;4391434;32;20589;-79
2022/09/02 02:50:52;;;;;;;8.05;7.22;;;;;;;;;;4391127;32;20624;-81
2022/09/02 02:53:20;;;;;;;8.77;7.20;;;;;;;;;;4391126;32;20284;-81
2022/09/02 02:55:47;;;;;;;8.23;7.37;;;;;;;;;;4391192;32;20584;-82
2022/09/02 02:58:15;;;;;;;11.77;6.82;;;;;;;;;;4391138;32;20562;-80
2022/09/02 03:00:43;;;;;;;8.30;6.25;;;;;;;;;;4390899;32;20323;-80
2022/09/02 03:03:12;;;;;;;7.35;6.57;;;;;;;;;;4391040;32;20535;-82
2022/09/02 03:05:41;;;;;;;6.78;5.47;;;;;;;;;;4390967;32;20598;-82
2022/09/02 03:08:10;;;;;;;6.87;6.20;;;;;;;;;;4390939;32;20535;-81
2022/09/02 03:10:39;;;;;;;6.85;5.93;;;;;;;;;;4390857;32;20685;-80
2022/09/02 03:13:08;;;;;;;9.65;7.43;;;;;;;;;;4390811;32;20554;-81
2022/09/02 03:15:35;;;;;;;8.93;7.87;;;;;;;;;;4391007;32;20509;-79
2022/09/02 03:18:04;;;;;;;7.40;6.70;;;;;;;;;;4390892;32;20532;-82
2022/09/02 03:20:32;;;;;;;11.32;7.12;;;;;;;;;;4391879;32;20698;-80
2022/09/02 03:23:02;;;;;;;11.50;7.65;;;;;;;;;;4390824;32;20547;-81
2022/09/02 03:25:31;;;;;;;12.57;7.97;;;;;;;;;;4390864;32;20579;-82
2022/09/02 03:27:58;;;;;;;10.48;8.10;;;;;;;;;;4390478;32;20555;-81
2022/09/02 03:30:28;;;;;;;9.38;7.95;;;;;;;;;;4390514;32;20717;-82
2022/09/02 03:32:58;;;;;;;9.55;7.70;;;;;;;;;;4390901;32;20625;-83
2022/09/02 03:35:26;;;;;;;8.10;7.10;;;;;;;;;;4389909;32;20520;-82
2022/09/02 03:37:54;;;;;;;10.85;7.70;;;;;;;;;;4390393;32;20579;-80
2022/09/02 03:40:26;;;;;;;12.55;8.60;;;;;;;;;;4390222;32;20294;-80
2022/09/02 03:42:55;;;;;;;9.00;7.50;;;;;;;;;;4390276;32;20550;-80
2022/09/02 03:45:23;;;;;;;12.93;8.20;;;;;;;;;;4390160;32;20540;-80
2022/09/02 03:47:52;;;;;;;10.05;7.53;;;;;;;;;;4390221;32;20540;-83
2022/09/02 03:50:22;;;;;;;8.70;7.32;;;;;;;;;;4390144;32;20521;-81
2022/09/02 03:52:50;;;;;;;10.18;7.97;;;;;;;;;;4390175;32;20697;-80
2022/09/02 03:55:19;;;;;;;8.32;7.10;;;;;;;;;;4390091;32;20549;-80
2022/09/02 03:57:48;;;;;;;11.82;7.87;;;;;;;;;;4390170;32;20825;-80
2022/09/02 04:00:19;;;;;;;11.30;7.95;;;;;;;;;;4389987;32;20234;-81
2022/09/02 04:02:46;;;;;;;13.02;8.02;;;;;;;;;;4390066;32;20642;-81
2022/09/02 04:05:14;;;;;;;15.70;10.32;;;;;;;;;;4390119;32;20320;-79
2022/09/02 04:07:43;;;;;;;19.17;13.02;;;;;;;;;;4389963;32;20544;-82
2022/09/02 04:10:12;;;;;;;19.12;13.27;;;;;;;;;;4389793;32;20586;-81
2022/09/02 04:12:40;;;;;;;18.25;10.60;;;;;;;;;;4389805;32;20232;-81
2022/09/02 04:15:12;;;;;;;21.50;11.07;;;;;;;;;;4389975;32;20575;-81
2022/09/02 04:17:41;;;;;;;11.10;8.73;;;;;;;;;;4389927;32;20539;-80
2022/09/02 04:20:12;;;;;;;12.85;9.57;;;;;;;;;;4389556;32;20316;-82
2022/09/02 04:22:39;;;;;;;18.70;9.52;;;;;;;;;;4389937;32;20512;-80
2022/09/02 04:25:08;;;;;;;10.52;7.95;;;;;;;;;;4389845;32;20647;-80
2022/09/02 04:27:36;;;;;;;9.70;8.10;;;;;;;;;;4389815;32;20206;-80
2022/09/02 04:30:04;;;;;;;11.40;8.45;;;;;;;;;;4389562;32;20256;-79
2022/09/02 04:32:34;;;;;;;10.82;8.82;;;;;;;;;;4389954;32;20609;-81
2022/09/02 04:35:01;;;;;;;9.00;8.10;;;;;;;;;;4389437;32;20539;-81
2022/09/02 04:37:32;;;;;;;11.18;8.68;;;;;;;;;;4389837;32;20535;-80
2022/09/02 04:39:59;;;;;;;12.55;8.98;;;;;;;;;;4390104;32;20579;-81
2022/09/02 04:42:27;;;;;;;12.07;9.70;;;;;;;;;;4390032;32;20642;-82
2022/09/02 04:44:56;;;;;;;11.88;9.10;;;;;;;;;;4389516;32;20574;-83
2022/09/02 04:47:26;;;;;;;11.02;9.07;;;;;;;;;;4389394;32;20547;-81
2022/09/02 04:49:55;;;;;;;9.52;8.50;;;;;;;;;;4389436;32;20643;-82
2022/09/02 04:52:23;;;;;;;11.93;9.07;;;;;;;;;;4389351;32;20511;-82
2022/09/02 04:54:50;;;;;;;9.93;8.77;;;;;;;;;;4389440;32;20470;-83
2022/09/02 04:57:18;;;;;;;9.98;8.73;;;;;;;;;;4389500;32;20517;-81
2022/09/02 04:59:45;;;;;;;11.85;9.25;;;;;;;;;;4389493;32;20508;-81
2022/09/02 05:02:13;;;;;;;12.68;9.52;;;;;;;;;;4389469;32;20568;-81
2022/09/02 05:04:41;;;;;;;14.15;11.32;;;;;;;;;;4389417;32;20534;-82
2022/09/02 05:07:10;;;;;;;12.27;9.50;;;;;;;;;;4389129;32;20328;-83
2022/09/02 05:09:38;;;;;;;12.48;9.68;;;;;;;;;;4389044;32;20528;-81
2022/09/02 05:12:06;;;;;;;12.07;10.75;;;;;;;;;;4389347;32;20635;-81
2022/09/02 05:14:34;;;;;;;13.10;10.00;;;;;;;;;;4389149;32;20202;-82
2022/09/02 05:17:01;;;;;;;11.12;9.82;;;;;;;;;;4389110;32;20584;-82
2022/09/02 05:19:29;;;;;;;11.73;9.52;;;;;;;;;;4388812;32;20543;-82
2022/09/02 05:21:58;;;;;;;11.32;7.60;;;;;;;;;;4388695;32;20641;-82
2022/09/02 05:24:28;;;;;;;9.85;7.25;;;;;;;;;;4388978;32;20543;-82
2022/09/02 05:26:56;;;;;;;13.50;8.90;;;;;;;;;;4389356;32;20693;-81
2022/09/02 05:29:23;;;;;;;8.68;7.68;;;;;;;;;;4388913;32;20539;-81
2022/09/02 05:31:51;;;;;;;13.15;6.62;;;;;;;;;;4388807;32;20532;-82
2022/09/02 05:34:18;;;;;;;9.73;6.37;;;;;;;;;;4388779;32;20523;-82
2022/09/02 05:36:46;;;;;;;13.45;7.97;;;;;;;;;;4388543;32;20535;-84
2022/09/02 05:39:14;;;;;;;9.60;7.22;;;;;;;;;;4388913;32;20606;-83
2022/09/02 05:41:43;;;;;;;11.52;7.47;;;;;;;;;;4388641;32;20594;-83
2022/09/02 05:44:10;;;;;;;7.25;6.50;;;;;;;;;;4389067;32;20611;-83
2022/09/02 05:46:38;;;;;;;12.45;7.12;;;;;;;;;;4388641;32;20635;-83
2022/09/02 05:49:07;;;;;;;8.05;6.57;;;;;;;;;;4388823;32;20244;-83
2022/09/02 05:51:40;;;;;;;15.18;7.62;;;;;;;;;;4388610;32;20587;-83
2022/09/02 05:54:10;;;;;;;11.80;7.60;;;;;;;;;;4388805;32;20232;-82
2022/09/02 05:56:39;;;;;;;16.40;8.98;;;;;;;;;;4388223;32;20663;-82
2022/09/02 05:59:09;;;;;;;16.10;8.80;;;;;;;;;;4388434;32;20425;-82
2022/09/02 06:01:37;;;;;;;8.05;7.22;;;;;;;;;;4388499;32;20531;-82
2022/09/02 06:04:05;;;;;;;10.55;7.95;;;;;;;;;;4388424;32;20555;-83
2022/09/02 06:06:33;;;;;;;10.00;7.90;;;;;;;;;;4388499;32;20618;-82
2022/09/02 06:09:04;;;;;;;20.27;9.32;;;;;;;;;;4388742;32;20544;-82
2022/09/02 06:11:31;;;;;;;14.55;9.18;;;;;;;;;;4388530;32;20550;-83
2022/09/02 06:13:59;;;;;;;10.32;7.70;;;;;;;;;;4388720;32;20199;-82
2022/09/02 06:16:28;;;;;;;18.65;9.30;;;;;;;;;;4388408;32;20583;-83
2022/09/02 06:18:56;;;;;;;11.32;7.82;;;;;;;;;;4388664;32;20612;-82
2022/09/02 06:21:24;;;;;;;6.85;4.97;;;;;;;;;;4388267;32;20535;-83
2022/09/02 06:23:51;;;;;;;7.12;4.45;;;;;;;;;;4388239;32;20544;-83
2022/09/02 06:26:19;;;;;;;10.38;5.35;;;;;;;;;;4388130;32;20635;-82
2022/09/02 06:28:47;;;;;;;10.57;7.03;;;;;;;;;;4388070;32;20678;-82
2022/09/02 06:31:16;;;;;;;11.60;8.30;;;;;;;;;;4388412;32;20513;-85
2022/09/02 06:33:47;;;;;;;13.32;7.28;;;;;;;;;;4388405;32;20547;-82
2022/09/02 06:36:17;;;;;;;14.23;7.50;;;;;;;;;;4388602;32;20637;-83
2022/09/02 06:38:49;;;;;;;12.68;7.75;;;;;;;;;;4388539;32;20280;-83
2022/09/02 06:41:21;;;;;;;6.50;5.32;;;;;;;;;;4388256;32;20658;-83
2022/09/02 06:43:49;;;;;;;7.78;6.07;;;;;;;;;;4388484;32;20299;-82
2022/09/02 06:46:19;;;;;;;7.75;6.55;;;;;;;;;;4388193;32;20263;-83
2022/09/02 06:48:49;;;;;;;9.43;7.90;;;;;;;;;;4388176;32;20517;-82
2022/09/02 06:51:18;;;;;;;7.87;7.07;;;;;;;;;;4388044;32;20528;-83
2022/09/02 06:53:45;;;;;;;10.88;7.68;;;;;;;;;;4388432;32;20635;-82
2022/09/02 06:56:13;;;;;;;9.07;6.93;;;;;;;;;;4388223;32;20539;-82
2022/09/02 06:58:41;;;;;;;12.43;8.25;;;;;;;;;;4388352;32;20513;-83
2022/09/02 07:01:08;;;;;;;8.82;7.47;;;;;;;;;;4388449;32;20301;-82
2022/09/02 07:06:23;;;;;;;7.75;6.78;;;;;;;;;;4390584;32;20286;-80
2022/09/02 07:08:50;;;;;;;12.75;6.95;;;;;;;;;;4388957;32;20531;-82
2022/09/02 07:11:21;;;;;;;13.73;7.57;;;;;;;;;;4390631;32;20778;-81
2022/09/02 07:13:49;;;;;;;10.13;8.00;;;;;;;;;;4391042;32;20547;-83
2022/09/02 07:16:18;;;;;;;10.50;6.97;;;;;;;;;;4390694;32;20540;-82
2022/09/02 07:18:45;;;;;;;16.08;7.70;;;;;;;;;;4390671;32;20283;-82
2022/09/02 07:21:14;;;;;;;12.02;5.97;;;;;;;;;;4390647;32;20279;-80
2022/09/02 07:23:43;;;;;;;21.37;7.25;;;;;;;;;;4390721;32;20569;-83
2022/09/02 07:26:12;;;;;;;9.35;6.03;;;;;;;;;;4390424;32;20536;-83
2022/09/02 07:28:41;;;;;;;7.70;6.07;;;;;;;;;;4390615;32;20473;-83
2022/09/02 07:31:09;;;;;;;12.65;6.90;;;;;;;;;;4390799;32;20555;-82
2022/09/02 07:33:37;;;;;;;7.62;6.78;;;;;;;;;;4390787;32;20681;-82
2022/09/02 07:36:06;;;;;;;9.63;7.05;;;;;;;;;;4390868;32;20623;-80
2022/09/02 07:38:34;;;;;;;9.07;7.35;;;;;;;;;;4390693;32;20513;-82
2022/09/02 07:41:04;;;;;;;11.70;7.10;;;;;;;;;;4390503;32;20581;-83
2022/09/02 07:43:32;;;;;;;9.27;7.62;;;;;;;;;;4390271;32;20308;-81
2022/09/02 07:46:01;;;;;;;9.65;7.60;;;;;;;;;;4390294;32;20689;-82
2022/09/02 07:48:30;;;;;;;11.02;7.45;;;;;;;;;;4390252;32;20638;-82
2022/09/02 07:50:58;;;;;;;8.25;7.45;;;;;;;;;;4390326;32;20547;-81
2022/09/02 07:53:27;;;;;;;10.82;7.15;;;;;;;;;;4390403;32;20538;-80
2022/09/02 07:55:54;;;;;;;9.55;8.25;;;;;;;;;;4390346;32;20630;-82
2022/09/02 07:58:24;;;;;;;9.90;8.18;;;;;;;;;;4390177;32;20615;-82
2022/09/02 08:00:55;;;;;;;11.82;9.75;;;;;;;;;;4390280;32;20614;-82
2022/09/02 08:03:24;;;;;;;12.07;9.88;;;;;;;;;;4390469;32;20567;-83
2022/09/02 08:05:52;;;;;;;14.45;10.00;;;;;;;;;;4390190;32;20598;-82
2022/09/02 08:08:20;;;;;;;10.77;8.20;;;;;;;;;;4390152;32;20513;-82
2022/09/02 08:10:48;;;;;;;13.25;8.70;;;;;;;;;;4390071;32;20628;-82
2022/09/02 08:13:17;;;;;;;19.98;9.45;;;;;;;;;;4390178;32;20551;-84
2022/09/02 08:15:46;;;;;;;11.23;9.13;;;;;;;;;;4389918;32;20289;-84
2022/09/02 08:18:14;;;;;;;13.95;10.73;;;;;;;;;;4390004;32;20244;-84
2022/09/02 08:20:42;;;;;;;16.98;11.30;;;;;;;;;;4389622;32;20579;-83
2022/09/02 08:23:11;;;;;;;12.13;10.88;;;;;;;;;;4390025;32;20523;-84
2022/09/02 08:25:39;;;;;;;12.27;11.05;;;;;;;;;;4389847;32;20733;-84
2022/09/02 08:28:08;;;;;;;15.52;13.15;;;;;;;;;;4390068;32;20604;-84
2022/09/02 08:30:36;;;;;;;15.18;12.75;;;;;;;;;;4389773;32;20584;-84
2022/09/02 08:33:05;;;;;;;17.05;12.45;;;;;;;;;;4389754;32;20513;-84
2022/09/02 08:35:32;;;;;;;15.77;13.13;;;;;;;;;;4390028;32;20671;-84
2022/09/02 08:38:00;;;;;;;15.00;11.23;;;;;;;;;;4389609;32;20672;-85
2022/09/02 08:40:35;;;;;;;11.93;10.82;;;;;;;;;;4389616;32;20627;-84
2022/09/02 08:43:05;;;;;;;13.02;11.63;;;;;;;;;;4389780;32;20540;-84
2022/09/02 08:45:38;;;;;;;14.07;11.70;;;;;;;;;;4389353;32;20565;-84
2022/09/02 08:48:12;;;;;;;15.32;13.62;;;;;;;;;;4389901;32;20512;-84
2022/09/02 08:50:43;;;;;;;10.70;9.18;;;;;;;;;;4389987;32;20644;-84
2022/09/02 08:53:17;;;;;;;11.65;8.60;;;;;;;;;;4389613;32;20546;-86
2022/09/02 08:55:51;;;;;;;12.75;9.75;;;;;;;;;;4389768;32;20658;-84
2022/09/02 08:58:22;;;;;;;11.98;9.80;;;;;;;;;;4390044;32;20708;-84
2022/09/02 09:00:56;;;;;;;14.65;10.88;;;;;;;;;;4389678;32;20571;-84
2022/09/02 09:03:31;;;;;;;13.93;10.20;;;;;;;;;;4389948;32;20607;-84
2022/09/02 09:06:05;;;;;;;16.15;11.18;;;;;;;;;;4389419;32;20676;-84
2022/09/02 09:08:39;;;;;;;12.85;10.57;;;;;;;;;;4389277;32;20554;-84
2022/09/02 09:11:15;;;;;;;14.98;11.43;;;;;;;;;;4389243;32;20582;-84
2022/09/02 09:14:02;;;;;;;18.77;15.57;;;;;;;;;;4389764;32;20539;-84
2022/09/02 09:16:39;;;;;;;14.90;13.00;;;;;;;;;;4390124;32;20698;-83
2022/09/02 09:19:13;;;;;;;11.12;9.95;;;;;;;;;;4391407;32;20497;-84
2022/09/02 09:21:41;;;;;;;8.82;7.93;;;;;;;;;;4389554;32;20547;-84
2022/09/02 09:24:25;;;;;;;13.43;7.78;;;;;;;;;;4388859;32;20531;-84
2022/09/02 09:26:54;;;;;;;9.25;7.05;;;;;;;;;;4389001;32;20665;-84
2022/09/02 09:29:21;;;;;;;10.48;7.18;;;;;;;;;;4388950;32;20206;-84
2022/09/02 09:31:56;;;;;;;8.48;6.78;;;;;;;;;;4388442;32;20638;-84
2022/09/02 09:34:25;;;;;;;8.15;7.37;;;;;;;;;;4389312;32;20536;-83
2022/09/02 09:36:54;;;;;;;7.00;6.30;;;;;;;;;;4389152;32;20607;-84
2022/09/02 09:39:25;;;;;;;8.40;7.00;;;;;;;;;;4389166;32;20539;-84
2022/09/02 09:42:04;;;;;;;12.00;7.35;;;;;;;;;;4389487;32;20226;-83
2022/09/02 09:44:44;;;;;;;7.62;6.35;;;;;;;;;;4390655;32;20197;-83
2022/09/02 09:47:18;;;;;;;7.85;6.57;;;;;;;;;;4389885;32;20316;-84
2022/09/02 09:49:49;;;;;;;7.50;6.10;;;;;;;;;;4376291;32;20630;-82
2022/09/02 09:52:27;;;;;;;11.68;6.30;;;;;;;;;;4389384;32;20193;-84
2022/09/02 09:55:12;;;;;;;7.60;5.72;;;;;;;;;;4389358;32;20580;-84
2022/09/02 09:57:42;;;;;;;6.97;5.47;;;;;;;;;;4389514;32;20228;-84
2022/09/02 10:00:30;;;;;;;13.07;5.20;;;;;;;;;;4389196;32;20665;-84
2022/09/02 10:03:02;;;;;;;9.15;6.10;;;;;;;;;;4389330;32;20531;-84
2022/09/02 10:05:35;;;;;;;9.18;5.25;;;;;;;;;;4389477;32;20678;-84
2022/09/02 10:08:04;;;;;;;6.95;5.90;;;;;;;;;;4389455;32;20547;-84
2022/09/02 10:10:34;;;;;;;8.02;5.78;;;;;;;;;;4389032;32;20316;-84
2022/09/02 10:13:20;;;;;;;6.15;5.55;;;;;;;;;;4389500;32;20606;-84
2022/09/02 10:16:00;;;;;;;6.57;5.97;;;;;;;;;;4388943;32;20563;-84
2022/09/02 10:18:34;;;;;;;6.57;5.30;;;;;;;;;;4389201;32;20631;-84
2022/09/02 10:21:12;;;;;;;5.43;4.00;;;;;;;;;;4388891;32;20593;-84
2022/09/02 10:23:51;;;;;;;7.97;4.78;;;;;;;;;;4388955;32;20281;-84
2022/09/02 10:26:26;;;;;;;16.02;5.68;;;;;;;;;;4388987;32;20292;-85
2022/09/02 10:29:22;;;;;;;5.60;5.10;;;;;;;;;;4389243;32;20554;-84
2022/09/02 10:31:58;;;;;;;11.05;5.55;;;;;;;;;;4369992;32;20741;-84
2022/09/02 10:34:34;;;;;;;6.53;4.87;;;;;;;;;;4389230;32;20558;-85
2022/09/02 10:37:16;;;;;;;61.75;21.98;;;;;;;;;;4388685;32;20230;-86
2022/09/02 10:40:03;;;;;;;7.18;5.20;;;;;;;;;;4392126;32;20565;-86
2022/09/02 10:42:38;;;;;;;5.10;4.60;;;;;;;;;;4388820;32;20543;-87
2022/09/02 10:45:16;;;;;;;6.30;5.00;;;;;;;;;;4391643;32;20228;-86
2022/09/02 10:47:50;;;;;;;5.22;4.72;;;;;;;;;;4392255;32;20507;-87
2022/09/02 10:50:22;;;;;;;6.40;5.72;;;;;;;;;;4391663;32;20571;-87
2022/09/02 10:53:20;;;;;;;6.97;5.53;;;;;;;;;;4391653;32;20610;-87
2022/09/02 10:55:57;;;;;;;5.82;4.62;;;;;;;;;;4391740;32;20341;-88
2022/09/02 10:58:37;;;;;;;10.70;5.32;;;;;;;;;;4392046;32;20672;-88
2022/09/02 11:01:09;;;;;;;6.50;5.50;;;;;;;;;;4391619;32;20684;-87
2022/09/02 11:03:42;;;;;;;5.12;4.62;;;;;;;;;;4391613;32;20586;-88
2022/09/02 11:06:15;;;;;;;7.87;5.12;;;;;;;;;;4391696;32;20732;-88
2022/09/02 11:08:49;;;;;;;15.00;5.70;;;;;;;;;;4391939;32;20521;-88
2022/09/02 11:11:22;;;;;;;10.43;5.47;;;;;;;;;;4391717;32;20540;-88
2022/09/02 11:14:01;;;;;;;6.57;5.53;;;;;;;;;;4391385;32;20343;-88
2022/09/02 11:16:35;;;;;;;7.55;6.25;;;;;;;;;;4391338;32;20577;-88
2022/09/02 11:19:09;;;;;;;7.20;5.18;;;;;;;;;;4391254;32;20554;-88
2022/09/02 11:21:49;;;;;;;5.28;4.57;;;;;;;;;;4391315;32;20611;-88
2022/09/02 11:24:27;;;;;;;6.05;5.22;;;;;;;;;;4391486;32;20578;-88
2022/09/02 11:27:03;;;;;;;9.23;5.18;;;;;;;;;;4391404;32;20276;-88
2022/09/02 11:29:40;;;;;;;11.07;6.80;;;;;;;;;;4391031;32;20228;-88
2022/09/02 11:32:16;;;;;;;8.43;5.97;;;;;;;;;;4391001;32;20529;-88
2022/09/02 11:34:49;;;;;;;8.27;6.12;;;;;;;;;;4391193;32;20670;-89
2022/09/02 11:37:29;;;;;;;12.32;5.53;;;;;;;;;;4391968;32;20507;-88
2022/09/02 11:40:04;;;;;;;11.40;5.55;;;;;;;;;;4391523;32;20793;-88
2022/09/02 11:42:47;;;;;;;6.62;5.47;;;;;;;;;;4392419;32;20633;-88
2022/09/02 11:45:36;;;;;;;6.43;5.78;;;;;;;;;;4396641;32;20647;-87
2022/09/02 11:48:49;;;;;;;7.28;6.05;;;;;;;;;;4395857;32;20520;-88
2022/09/02 11:51:50;;;;;;;16.75;6.85;;;;;;;;;;4392286;32;20234;-88
2022/09/02 11:54:21;;;;;;;9.93;7.03;;;;;;;;;;4376228;32;20543;-88
2022/09/02 11:56:56;;;;;;;12.40;6.25;;;;;;;;;;4391475;32;20505;-87
2022/09/02 11:59:52;;;;;;;9.75;6.30;;;;;;;;;;4391477;32;20593;-81
2022/09/02 12:02:35;;;;;;;11.23;7.10;;;;;;;;;;4359453;32;20685;-85
2022/09/02 12:05:36;;;;;;;15.63;6.40;;;;;;;;;;4391212;32;20225;-83
2022/09/02 12:08:05;;;;;;;8.93;6.37;;;;;;;;;;4391037;32;20248;-80
2022/09/02 12:10:59;;;;;;;13.90;6.55;;;;;;;;;;4390633;32;20552;-82
2022/09/02 12:13:39;;;;;;;8.00;6.68;;;;;;;;;;4391207;32;20603;-81
2022/09/02 12:16:42;;;;;;;11.85;5.90;;;;;;;;;;4390972;32;20625;-81
2022/09/02 12:19:39;;;;;;;10.65;7.53;;;;;;;;;;4390686;32;20535;-81
2022/09/02 12:22:32;;;;;;;10.40;7.45;;;;;;;;;;4390770;32;20213;-84
2022/09/02 12:25:00;;;;;;;10.75;6.93;;;;;;;;;;4391019;32;20579;-81
2022/09/02 12:27:30;;;;;;;10.35;7.82;;;;;;;;;;4390819;32;20538;-81
2022/09/02 12:29:59;;;;;;;16.08;7.90;;;;;;;;;;4390494;32;20351;-80
2022/09/02 12:33:01;;;;;;;13.77;8.23;;;;;;;;;;4390541;32;20539;-81
2022/09/02 12:35:34;;;;;;;13.13;7.90;;;;;;;;;;4390809;32;20595;-83
2022/09/02 12:38:24;;;;;;;14.25;9.18;;;;;;;;;;4390762;32;20662;-82
2022/09/02 12:40:57;;;;;;;12.23;8.38;;;;;;;;;;4382633;32;20591;-81
2022/09/02 12:43:29;;;;;;;12.27;7.78;;;;;;;;;;4390583;32;20520;-81
2022/09/02 12:46:06;;;;;;;9.40;8.40;;;;;;;;;;4390898;32;20565;-81
2022/09/02 12:48:42;;;;;;;13.13;8.70;;;;;;;;;;4391227;32;20236;-81
2022/09/02 12:51:09;;;;;;;10.05;8.80;;;;;;;;;;4391094;32;20493;-80
2022/09/02 12:53:41;;;;;;;17.70;7.57;;;;;;;;;;4390546;32;20206;-81
2022/09/02 12:56:20;;;;;;;8.50;7.32;;;;;;;;;;4390644;32;20590;-81
2022/09/02 12:58:51;;;;;;;9.18;7.18;;;;;;;;;;4391018;32;20583;-82
2022/09/02 13:01:28;;;;;;;15.02;8.88;;;;;;;;;;4390644;32;20311;-81
2022/09/02 13:04:08;;;;;;;23.10;9.98;;;;;;;;;;4390156;32;20542;-81
2022/09/02 13:06:58;;;;;;;18.37;10.98;;;;;;;;;;4388477;32;20598;-82
2022/09/02 13:09:50;;;;;;;21.02;10.40;;;;;;;;;;4389365;32;20277;-83
2022/09/02 13:12:50;;;;;;;20.05;9.85;;;;;;;;;;4389664;32;20615;-82
2022/09/02 13:15:38;;;;;;;14.73;10.23;;;;;;;;;;4389507;32;20536;-82
2022/09/02 13:18:37;;;;;;;15.32;9.40;;;;;;;;;;4389493;32;20657;-81
2022/09/02 13:21:26;;;;;;;15.82;9.05;;;;;;;;;;4388730;32;20587;-82
2022/09/02 13:24:27;;;;;;;12.32;9.20;;;;;;;;;;4389344;32;20669;-84
2022/09/02 13:27:19;;;;;;;10.25;8.57;;;;;;;;;;4388492;32;20594;-81
2022/09/02 13:30:06;;;;;;;10.40;8.68;;;;;;;;;;4365781;32;20555;-81
2022/09/02 13:32:36;;;;;;;13.25;9.88;;;;;;;;;;4388976;32;20551;-83
2022/09/02 13:35:08;;;;;;;15.45;10.10;;;;;;;;;;4388839;32;20605;-82
2022/09/02 13:37:37;;;;;;;16.08;9.18;;;;;;;;;;4389119;32;20504;-81
2022/09/02 13:40:18;;;;;;;9.85;8.85;;;;;;;;;;4388588;32;20563;-81
2022/09/02 13:42:49;;;;;;;18.35;9.40;;;;;;;;;;4388649;32;20513;-82
2022/09/02 13:45:18;;;;;;;11.18;8.77;;;;;;;;;;4388603;32;20556;-82
2022/09/02 13:47:48;;;;;;;11.43;9.20;;;;;;;;;;4388879;32;20284;-82
2022/09/02 13:50:20;;;;;;;12.50;8.52;;;;;;;;;;4389112;32;20234;-82
2022/09/02 13:52:51;;;;;;;13.70;8.25;;;;;;;;;;4388825;32;20555;-81
2022/09/02 13:55:19;;;;;;;11.32;8.35;;;;;;;;;;4388769;32;20555;-81
2022/09/02 13:57:57;;;;;;;11.65;8.05;;;;;;;;;;4388825;32;20623;-82
2022/09/02 14:00:32;;;;;;;14.07;9.05;;;;;;;;;;4388578;32;20357;-84
2022/09/02 14:03:02;;;;;;;18.23;9.27;;;;;;;;;;4388904;32;20507;-85
2022/09/02 14:05:34;;;;;;;14.15;9.30;;;;;;;;;;4388567;32;20256;-82
2022/09/02 14:08:03;;;;;;;18.65;11.43;;;;;;;;;;4389200;32;20720;-83
2022/09/02 14:10:33;;;;;;;13.57;9.90;;;;;;;;;;4388489;32;20663;-82
2022/09/02 14:13:03;;;;;;;17.20;10.95;;;;;;;;;;4388611;32;20512;-83
2022/09/02 14:15:32;;;;;;;16.50;11.32;;;;;;;;;;4388885;32;20693;-82
2022/09/02 14:18:24;;;;;;;12.73;10.23;;;;;;;;;;4389182;32;20521;-86
2022/09/02 14:20:59;;;;;;;20.05;11.32;;;;;;;;;;4376950;32;20681;-82
2022/09/02 14:23:28;;;;;;;12.07;10.57;;;;;;;;;;4392327;32;20591;-81
2022/09/02 14:25:57;;;;;;;15.70;11.10;;;;;;;;;;4391583;32;20620;-83
2022/09/02 14:28:28;;;;;;;13.45;10.98;;;;;;;;;;4391501;32;20210;-83
2022/09/02 14:31:01;;;;;;;16.67;10.98;;;;;;;;;;4391422;32;20544;-81
2022/09/02 14:33:39;;;;;;;15.80;10.98;;;;;;;;;;4391379;32;20523;-82
2022/09/02 14:36:12;;;;;;;12.02;9.98;;;;;;;;;;4391371;32;20509;-82
2022/09/02 14:38:51;;;;;;;12.57;10.27;;;;;;;;;;4391805;32;20531;-82
2022/09/02 14:41:23;;;;;;;11.50;10.30;;;;;;;;;;4391301;32;20613;-82
2022/09/02 14:43:54;;;;;;;10.00;8.98;;;;;;;;;;4391794;32;20608;-85
2022/09/02 14:46:28;;;;;;;13.98;9.32;;;;;;;;;;4391076;32;20645;-82
2022/09/02 14:49:03;;;;;;;13.90;9.90;;;;;;;;;;4391102;32;20243;-84
2022/09/02 14:51:39;;;;;;;8.57;7.62;;;;;;;;;;4391340;32;20582;-84
2022/09/02 14:54:07;;;;;;;11.00;8.20;;;;;;;;;;4391229;32;20551;-84
2022/09/02 14:56:46;;;;;;;12.68;7.80;;;;;;;;;;4391084;32;20556;-84
2022/09/02 14:59:14;;;;;;;10.77;8.50;;;;;;;;;;4391754;32;20603;-84
2022/09/02 15:01:45;;;;;;;9.68;8.13;;;;;;;;;;4390798;32;20335;-84
2022/09/02 15:04:14;;;;;;;12.60;9.25;;;;;;;;;;4391055;32;20578;-86